首页
METAR-TAF:

METAR-TAF

机场 :

普雷斯科特, 亞利桑那州, 美国

纬度: 34-38-57N, 经度: 112-25-20W, 海拔: 1537米

当前天气观测

该预报发布于57分钟前的03:53 UTC
风速8节,风向南转西南
温度 19°C
湿度 18%
气压 1017 hPa
能見度: 16.1公里
天空无云

METAR: KPRC 190353Z 21008KT 10SM CLR 19/M06 A3004 RMK AO2 SLP095 T01891061

时间: 21:50 (04:50 UTC)

预报

该预报发布于3小时和49分钟前的01:01 UTC
预报有效从19日的 01点(UTC)到 19日的 24点(UTC)
风速12节,风向南转西南,有时为25节阵风
能見度: 10公里
天空无云
从 19日的 0200点(UTC)
风速10节,风向南转西南
能見度: 10公里
天空无云
从 19日的 1800点(UTC)
风速12节,风向南转西南,有时为22节阵风
能見度: 10公里
天空无云

TAF: KPRC 190101Z 1901/1924 20012G25KT P6SM SKC FM190200 20010KT P6SM SKC FM191800 21012G22KT P6SM SKC

超过4000个机场的气象观测和天气预报(METAR&TAF报告)。

可查询的气象台以黄色和红色小点在地图上表示。

将鼠标移到小点上方,可查看气象台名称。

然后点击查看天气观测和预报。

如需切换地图:点击带黑十字的绿色按钮放大地图;点击带横线的绿色按钮缩小地图;或者点击绿色箭头查看邻近地区的地图。


METAR-TAF: